Time,TemperatureF,DewpointF,PressureIn,WindDirection,WindDirectionDegrees,WindSpeedMPH,WindSpeedGustMPH,Humidity,HourlyPrecipIn,Conditions,Clouds,dailyrainin,SoftwareType,DateUTC
2013-07-08 00:13:00,77.5,70.0,29.89,South,189,2.0,5.0,78,0.00,,,0.00,weatherlink.com 1.10,2013-07-08 05:13:00,
2013-07-08 00:28:00,77.4,70.0,29.89,SW,215,0.0,5.0,79,0.00,,,0.00,weatherlink.com 1.10,2013-07-08 05:28:00,
2013-07-08 00:43:00,77.2,70.0,29.88,WSW,240,0.0,2.0,79,0.00,,,0.00,weatherlink.com 1.10,2013-07-08 05:43:00,
2013-07-08 00:58:00,77.0,70.0,29.88,WSW,252,0.0,4.0,80,0.00,,,0.00,weatherlink.com 1.10,2013-07-08 05:58:00,
2013-07-08 01:13:00,77.0,70.0,29.87,SW,224,2.0,5.0,79,0.00,,,0.00,weatherlink.com 1.10,2013-07-08 06:13:00,
2013-07-08 01:28:00,77.2,70.0,29.87,SW,221,3.0,8.0,79,0.00,,,0.00,weatherlink.com 1.10,2013-07-08 06:28:00,
2013-07-08 01:43:00,77.0,70.0,29.87,SW,236,4.0,7.0,79,0.00,,,0.00,weatherlink.com 1.10,2013-07-08 06:43:00,
2013-07-08 01:58:00,76.7,70.0,29.87,SSW,204,2.0,5.0,80,0.00,,,0.00,weatherlink.com 1.10,2013-07-08 06:58:00,
2013-07-08 02:13:00,76.6,70.0,29.86,SW,215,3.0,5.0,80,0.00,,,0.00,weatherlink.com 1.10,2013-07-08 07:13:00,
2013-07-08 02:28:00,76.5,70.0,29.86,SW,220,5.0,5.0,80,0.00,,,0.00,weatherlink.com 1.10,2013-07-08 07:28:00,
2013-07-08 02:43:00,76.5,70.0,29.86,South,189,2.0,10.0,79,0.00,,,0.00,weatherlink.com 1.10,2013-07-08 07:43:00,
2013-07-08 02:58:00,76.8,69.0,29.85,SW,226,3.0,6.0,78,0.00,,,0.00,weatherlink.com 1.10,2013-07-08 07:58:00,
2013-07-08 03:13:00,76.9,70.0,29.84,WSW,240,5.0,7.0,78,0.00,,,0.00,weatherlink.com 1.10,2013-07-08 08:13:00,
2013-07-08 03:28:00,76.7,69.0,29.85,SW,233,4.0,7.0,78,0.00,,,0.00,weatherlink.com 1.10,2013-07-08 08:28:00,
2013-07-08 03:43:00,76.3,69.0,29.84,SW,229,2.0,7.0,79,0.00,,,0.00,weatherlink.com 1.10,2013-07-08 08:43:00,
2013-07-08 03:58:00,76.3,69.0,29.84,West,280,1.0,10.0,79,0.00,,,0.00,weatherlink.com 1.10,2013-07-08 08:58:00,
2013-07-08 04:13:00,76.4,69.0,29.84,WSW,243,1.0,10.0,78,0.00,,,0.00,weatherlink.com 1.10,2013-07-08 09:13:00,
2013-07-08 04:28:00,76.6,69.0,29.86,WSW,239,1.0,10.0,78,0.00,,,0.00,weatherlink.com 1.10,2013-07-08 09:28:00,
2013-07-08 04:43:00,75.0,69.0,29.87,WSW,250,6.0,13.0,82,0.00,,,0.00,weatherlink.com 1.10,2013-07-08 09:43:00,
2013-07-08 04:58:00,73.1,69.0,29.87,WSW,250,1.0,6.0,88,0.04,,,0.04,weatherlink.com 1.10,2013-07-08 09:58:00,
2013-07-08 05:13:00,72.6,70.0,29.87,West,270,0.0,2.0,90,0.09,,,0.09,weatherlink.com 1.10,2013-07-08 10:13:00,
2013-07-08 05:28:00,72.3,70.0,29.88,WNW,288,0.0,1.0,91,0.09,,,0.09,weatherlink.com 1.10,2013-07-08 10:28:00,
2013-07-08 05:43:00,72.3,70.0,29.88,WNW,301,2.0,3.0,92,0.09,,,0.10,weatherlink.com 1.10,2013-07-08 10:43:00,
2013-07-08 05:58:00,72.2,70.0,29.89,WNW,302,4.0,4.0,91,0.08,,,0.12,weatherlink.com 1.10,2013-07-08 10:58:00,
2013-07-08 06:13:00,72.1,69.0,29.88,SW,219,2.0,4.0,91,0.04,,,0.13,weatherlink.com 1.10,2013-07-08 11:13:00,
2013-07-08 06:28:00,71.7,69.0,29.87,WSW,243,2.0,6.0,92,0.05,,,0.14,weatherlink.com 1.10,2013-07-08 11:28:00,
2013-07-08 06:43:00,71.5,69.0,29.87,North,354,2.0,7.0,92,0.04,,,0.14,weatherlink.com 1.10,2013-07-08 11:43:00,
2013-07-08 06:58:00,71.5,69.0,29.87,SSW,197,4.0,8.0,92,0.02,,,0.14,weatherlink.com 1.10,2013-07-08 11:58:00,
2013-07-08 07:13:00,71.6,69.0,29.88,SW,229,6.0,6.0,92,0.01,,,0.14,weatherlink.com 1.10,2013-07-08 12:13:00,
2013-07-08 07:28:00,71.6,69.0,29.89,SW,229,6.0,9.0,92,0.00,,,0.14,weatherlink.com 1.10,2013-07-08 12:28:00,
2013-07-08 07:43:00,71.6,69.0,29.88,SW,226,6.0,7.0,91,0.00,,,0.14,weatherlink.com 1.10,2013-07-08 12:43:00,
2013-07-08 07:58:00,71.7,69.0,29.89,WSW,253,2.0,8.0,90,0.00,,,0.14,weatherlink.com 1.10,2013-07-08 12:58:00,
2013-07-08 08:13:00,71.9,69.0,29.89,SW,229,0.0,4.0,90,0.00,,,0.14,weatherlink.com 1.10,2013-07-08 13:13:00,
2013-07-08 08:28:00,72.4,69.0,29.89,SE,127,0.0,1.0,90,0.00,,,0.14,weatherlink.com 1.10,2013-07-08 13:28:00,
2013-07-08 08:43:00,73.8,70.0,29.89,West,268,0.0,4.0,88,0.00,,,0.14,weatherlink.com 1.10,2013-07-08 13:43:00,
2013-07-08 08:58:00,74.8,70.0,29.89,SW,236,5.0,5.0,86,0.00,,,0.14,weatherlink.com 1.10,2013-07-08 13:58:00,
2013-07-08 09:13:00,75.3,71.0,29.90,WSW,244,3.0,6.0,85,0.00,,,0.14,weatherlink.com 1.10,2013-07-08 14:13:00,
2013-07-08 09:28:00,76.2,71.0,29.89,SW,229,1.0,5.0,84,0.00,,,0.14,weatherlink.com 1.10,2013-07-08 14:28:00,
2013-07-08 09:43:00,77.0,71.0,29.89,SW,214,2.0,7.0,82,0.00,,,0.14,weatherlink.com 1.10,2013-07-08 14:43:00,
2013-07-08 09:59:00,78.5,72.0,29.89,South,180,3.0,7.0,79,0.00,,,0.14,weatherlink.com 1.10,2013-07-08 14:59:00,
2013-07-08 10:14:00,78.6,72.0,29.89,SSE,158,3.0,6.0,80,0.00,,,0.14,weatherlink.com 1.10,2013-07-08 15:14:00,
2013-07-08 10:29:00,78.5,72.0,29.89,SSW,211,3.0,6.0,80,0.00,,,0.14,weatherlink.com 1.10,2013-07-08 15:29:00,
2013-07-08 10:44:00,79.4,72.0,29.89,SW,236,1.0,6.0,79,0.00,,,0.14,weatherlink.com 1.10,2013-07-08 15:44:00,
2013-07-08 10:59:00,80.3,72.0,29.89,WNW,283,3.0,4.0,76,0.00,,,0.14,weatherlink.com 1.10,2013-07-08 15:59:00,
2013-07-08 11:14:00,79.6,72.0,29.90,NW,311,2.0,7.0,77,0.00,,,0.14,weatherlink.com 1.10,2013-07-08 16:14:00,
2013-07-08 11:29:00,80.0,72.0,29.89,NNW,338,0.0,6.0,77,0.00,,,0.14,weatherlink.com 1.10,2013-07-08 16:29:00,
2013-07-08 11:44:00,79.6,72.0,29.89,NNW,336,2.0,7.0,78,0.00,,,0.14,weatherlink.com 1.10,2013-07-08 16:44:00,
2013-07-08 11:59:00,79.5,72.0,29.89,NW,312,1.0,8.0,78,0.00,,,0.14,weatherlink.com 1.10,2013-07-08 16:59:00,
2013-07-08 12:14:00,80.2,72.0,29.89,West,281,3.0,8.0,76,0.00,,,0.14,weatherlink.com 1.10,2013-07-08 17:14:00,
2013-07-08 12:29:00,80.6,72.0,29.89,WNW,294,4.0,8.0,76,0.00,,,0.14,weatherlink.com 1.10,2013-07-08 17:29:00,
2013-07-08 12:44:00,81.2,73.0,29.89,NW,308,4.0,8.0,75,0.00,,,0.14,weatherlink.com 1.10,2013-07-08 17:44:00,
2013-07-08 12:59:00,81.0,72.0,29.89,WNW,292,5.0,10.0,75,0.00,,,0.14,weatherlink.com 1.10,2013-07-08 17:59:00,
2013-07-08 13:59:00,83.8,73.0,29.89,NW,322,4.0,8.0,69,0.00,,,0.14,weatherlink.com 1.10,2013-07-08 18:59:00,
2013-07-08 15:14:00,88.3,74.0,29.89,SW,225,2.0,8.0,62,0.00,,,0.14,weatherlink.com 1.10,2013-07-08 20:14:00,
2013-07-08 15:29:00,87.4,74.0,29.88,West,259,2.0,7.0,65,0.00,,,0.14,weatherlink.com 1.10,2013-07-08 20:29:00,
2013-07-08 15:59:00,88.9,75.0,29.88,WSW,245,1.0,6.0,63,0.00,,,0.14,weatherlink.com 1.10,2013-07-08 20:59:00,
2013-07-08 16:14:00,89.3,75.0,29.88,WSW,242,1.0,8.0,63,0.00,,,0.14,weatherlink.com 1.10,2013-07-08 21:14:00,
2013-07-08 16:29:00,89.5,74.0,29.88,SW,215,1.0,5.0,60,0.00,,,0.14,weatherlink.com 1.10,2013-07-08 21:29:00,
2013-07-08 16:44:00,88.4,74.0,29.89,NE,53,1.0,4.0,62,0.00,,,0.14,weatherlink.com 1.10,2013-07-08 21:44:00,
2013-07-08 16:59:00,84.2,73.0,29.89,East,91,2.0,6.0,69,0.00,,,0.14,weatherlink.com 1.10,2013-07-08 21:59:00,
2013-07-08 17:14:00,83.6,72.0,29.89,SSE,150,1.0,3.0,69,0.00,,,0.14,weatherlink.com 1.10,2013-07-08 22:14:00,
2013-07-08 17:29:00,82.9,74.0,29.89,East,92,0.0,2.0,74,0.01,,,0.15,weatherlink.com 1.10,2013-07-08 22:29:00,
2013-07-08 17:44:00,81.2,73.0,29.88,SE,128,0.0,1.0,76,0.01,,,0.15,weatherlink.com 1.10,2013-07-08 22:44:00,
2013-07-08 18:14:00,81.8,75.0,29.89,ESE,108,0.0,4.0,80,0.01,,,0.15,weatherlink.com 1.10,2013-07-08 23:14:00,
2013-07-08 18:44:00,81.1,74.0,29.89,SSE,159,0.0,2.0,79,0.00,,,0.15,weatherlink.com 1.10,2013-07-08 23:44:00,
2013-07-08 19:14:00,80.2,75.0,29.90,SE,140,0.0,1.0,84,0.00,,,0.15,weatherlink.com 1.10,2013-07-09 00:14:00,
2013-07-08 19:30:00,79.9,75.0,29.91,SW,226,0.0,4.0,85,0.00,,,0.15,weatherlink.com 1.10,2013-07-09 00:30:00,
2013-07-08 19:59:00,78.9,76.0,29.91,NNE,25,0.0,1.0,89,0.02,,,0.17,weatherlink.com 1.10,2013-07-09 00:59:00,
2013-07-08 20:15:00,78.2,75.0,29.92,North,349,1.0,3.0,90,0.02,,,0.17,weatherlink.com 1.10,2013-07-09 01:15:00,
2013-07-08 21:00:00,77.8,75.0,29.92,ENE,74,0.0,1.0,91,0.00,,,0.17,weatherlink.com 1.10,2013-07-09 02:00:00,
2013-07-08 21:15:00,77.6,75.0,29.93,ENE,73,0.0,1.0,91,0.00,,,0.17,weatherlink.com 1.10,2013-07-09 02:15:00,
2013-07-08 21:30:00,77.4,75.0,29.93,ENE,74,0.0,0.0,92,0.00,,,0.17,weatherlink.com 1.10,2013-07-09 02:30:00,
2013-07-08 22:15:00,76.8,73.0,29.93,ESE,122,0.0,3.0,89,0.00,,,0.17,weatherlink.com 1.10,2013-07-09 03:15:00,
2013-07-08 22:45:00,75.7,73.0,29.93,ESE,102,0.0,1.0,90,0.00,,,0.17,weatherlink.com 1.10,2013-07-09 03:45:00,
2013-07-08 23:15:00,75.0,73.0,29.95,SSE,150,0.0,1.0,92,0.00,,,0.17,weatherlink.com 1.10,2013-07-09 04:15:00,
2013-07-08 23:30:00,74.9,72.0,29.94,ESE,121,1.0,3.0,91,0.00,,,0.17,weatherlink.com 1.10,2013-07-09 04:30:00,
2013-07-08 23:45:00,74.9,72.0,29.95,ESE,111,1.0,2.0,90,0.00,,,0.17,weatherlink.com 1.10,2013-07-09 04:45:00,